Terminal Aerodrome Forecast
Issued by NWS

Current Version | Previous Version | Graphics & Text | Print | Product List | Glossary On
Versions: 1 2 3 4 5 6 7 8 9 10 11 12 13 14 15 16 17 18 19 20
000
FTUS41 KILN 312300
TAFLCK
TAF
KLCK 312339Z 0100/0124 34012KT P6SM OVC012
     FM010200 34008KT 4SM BR OVC008
     FM011000 36008KT 4SM BR OVC004
     FM011400 01010KT P6SM VCSH OVC015
     FM012000 01010KT P6SM OVC025=

USA.gov is the U.S. government's official web portal to all federal, state and local government web resources and services.